sensor_id;sensor_type;location;lat;lon;timestamp;P1;durP1;ratioP1;P2;durP2;ratioP2
4268;SDS011;2148;48.554;7.834;2022-10-16T00:02:19;2.20;;;2.00;;
4268;SDS011;2148;48.554;7.834;2022-10-16T00:04:44;3.20;;;2.03;;
4268;SDS011;2148;48.554;7.834;2022-10-16T00:07:10;2.47;;;2.20;;
4268;SDS011;2148;48.554;7.834;2022-10-16T00:09:35;2.80;;;2.10;;
4268;SDS011;2148;48.554;7.834;2022-10-16T00:12:00;2.83;;;2.00;;
4268;SDS011;2148;48.554;7.834;2022-10-16T00:14:25;2.73;;;2.20;;
4268;SDS011;2148;48.554;7.834;2022-10-16T00:16:51;3.20;;;2.40;;
4268;SDS011;2148;48.554;7.834;2022-10-16T00:19:16;4.97;;;2.23;;
4268;SDS011;2148;48.554;7.834;2022-10-16T00:21:41;4.63;;;2.17;;
4268;SDS011;2148;48.554;7.834;2022-10-16T00:24:08;4.13;;;2.40;;
4268;SDS011;2148;48.554;7.834;2022-10-16T00:26:34;2.23;;;2.03;;
4268;SDS011;2148;48.554;7.834;2022-10-16T00:29:00;3.53;;;2.30;;
4268;SDS011;2148;48.554;7.834;2022-10-16T00:31:25;3.43;;;2.30;;
4268;SDS011;2148;48.554;7.834;2022-10-16T00:33:51;4.23;;;2.80;;
4268;SDS011;2148;48.554;7.834;2022-10-16T00:36:18;3.10;;;2.40;;
4268;SDS011;2148;48.554;7.834;2022-10-16T00:38:44;6.27;;;2.53;;
4268;SDS011;2148;48.554;7.834;2022-10-16T00:41:14;3.90;;;2.50;;
4268;SDS011;2148;48.554;7.834;2022-10-16T00:43:49;3.77;;;2.33;;
4268;SDS011;2148;48.554;7.834;2022-10-16T00:46:16;3.83;;;2.20;;
4268;SDS011;2148;48.554;7.834;2022-10-16T00:51:28;3.83;;;2.37;;
4268;SDS011;2148;48.554;7.834;2022-10-16T00:53:56;5.13;;;2.43;;
4268;SDS011;2148;48.554;7.834;2022-10-16T00:56:22;2.93;;;2.50;;
4268;SDS011;2148;48.554;7.834;2022-10-16T00:58:47;8.23;;;2.50;;
4268;SDS011;2148;48.554;7.834;2022-10-16T01:01:13;5.33;;;3.77;;
4268;SDS011;2148;48.554;7.834;2022-10-16T01:03:38;3.23;;;2.93;;
4268;SDS011;2148;48.554;7.834;2022-10-16T01:06:21;5.30;;;3.00;;
4268;SDS011;2148;48.554;7.834;2022-10-16T01:14:31;5.70;;;2.50;;
4268;SDS011;2148;48.554;7.834;2022-10-16T01:17:04;4.03;;;2.07;;
4268;SDS011;2148;48.554;7.834;2022-10-16T01:19:40;3.60;;;2.30;;
4268;SDS011;2148;48.554;7.834;2022-10-16T01:22:14;2.93;;;2.03;;
4268;SDS011;2148;48.554;7.834;2022-10-16T01:24:40;2.60;;;1.90;;
4268;SDS011;2148;48.554;7.834;2022-10-16T01:35:10;3.33;;;1.90;;
4268;SDS011;2148;48.554;7.834;2022-10-16T01:40:09;5.73;;;2.50;;
4268;SDS011;2148;48.554;7.834;2022-10-16T01:42:40;4.30;;;2.40;;
4268;SDS011;2148;48.554;7.834;2022-10-16T01:45:07;3.87;;;2.10;;
4268;SDS011;2148;48.554;7.834;2022-10-16T01:47:36;3.30;;;2.20;;
4268;SDS011;2148;48.554;7.834;2022-10-16T01:50:02;6.20;;;2.17;;
4268;SDS011;2148;48.554;7.834;2022-10-16T01:52:29;3.17;;;2.17;;
4268;SDS011;2148;48.554;7.834;2022-10-16T01:54:57;2.30;;;1.90;;
4268;SDS011;2148;48.554;7.834;2022-10-16T01:57:24;4.70;;;2.37;;
4268;SDS011;2148;48.554;7.834;2022-10-16T01:59:51;4.17;;;2.33;;
4268;SDS011;2148;48.554;7.834;2022-10-16T02:02:19;5.33;;;2.17;;
4268;SDS011;2148;48.554;7.834;2022-10-16T02:04:46;2.77;;;2.00;;
4268;SDS011;2148;48.554;7.834;2022-10-16T02:07:17;4.20;;;2.10;;
4268;SDS011;2148;48.554;7.834;2022-10-16T02:09:42;3.47;;;2.30;;
4268;SDS011;2148;48.554;7.834;2022-10-16T02:12:10;7.03;;;2.63;;
4268;SDS011;2148;48.554;7.834;2022-10-16T02:14:39;2.30;;;2.10;;
4268;SDS011;2148;48.554;7.834;2022-10-16T02:17:10;5.30;;;2.47;;
4268;SDS011;2148;48.554;7.834;2022-10-16T02:19:37;3.90;;;2.40;;
4268;SDS011;2148;48.554;7.834;2022-10-16T02:22:03;3.63;;;2.50;;
4268;SDS011;2148;48.554;7.834;2022-10-16T02:29:43;3.60;;;2.27;;
4268;SDS011;2148;48.554;7.834;2022-10-16T02:32:13;6.37;;;2.17;;
4268;SDS011;2148;48.554;7.834;2022-10-16T02:34:41;3.67;;;2.67;;
4268;SDS011;2148;48.554;7.834;2022-10-16T02:37:06;5.10;;;2.50;;
4268;SDS011;2148;48.554;7.834;2022-10-16T02:39:32;2.70;;;2.50;;
4268;SDS011;2148;48.554;7.834;2022-10-16T02:41:58;3.20;;;2.67;;
4268;SDS011;2148;48.554;7.834;2022-10-16T02:44:24;7.37;;;2.50;;
4268;SDS011;2148;48.554;7.834;2022-10-16T02:46:49;3.80;;;2.73;;
4268;SDS011;2148;48.554;7.834;2022-10-16T02:49:14;2.60;;;2.13;;
4268;SDS011;2148;48.554;7.834;2022-10-16T02:51:40;2.90;;;2.47;;
4268;SDS011;2148;48.554;7.834;2022-10-16T02:54:05;8.73;;;2.67;;
4268;SDS011;2148;48.554;7.834;2022-10-16T02:56:31;3.10;;;2.30;;
4268;SDS011;2148;48.554;7.834;2022-10-16T02:58:56;3.30;;;2.43;;
4268;SDS011;2148;48.554;7.834;2022-10-16T03:01:22;3.50;;;2.53;;
4268;SDS011;2148;48.554;7.834;2022-10-16T03:03:47;3.50;;;2.50;;
4268;SDS011;2148;48.554;7.834;2022-10-16T03:06:12;4.93;;;2.20;;
4268;SDS011;2148;48.554;7.834;2022-10-16T03:08:38;3.77;;;2.40;;
4268;SDS011;2148;48.554;7.834;2022-10-16T03:11:04;5.33;;;2.60;;
4268;SDS011;2148;48.554;7.834;2022-10-16T03:13:29;4.23;;;2.43;;
4268;SDS011;2148;48.554;7.834;2022-10-16T03:15:55;4.40;;;2.90;;
4268;SDS011;2148;48.554;7.834;2022-10-16T03:18:20;3.43;;;2.60;;
4268;SDS011;2148;48.554;7.834;2022-10-16T03:20:46;5.97;;;2.63;;
4268;SDS011;2148;48.554;7.834;2022-10-16T03:23:11;5.17;;;2.77;;
4268;SDS011;2148;48.554;7.834;2022-10-16T03:25:36;4.80;;;2.87;;
4268;SDS011;2148;48.554;7.834;2022-10-16T03:28:02;2.70;;;2.37;;
4268;SDS011;2148;48.554;7.834;2022-10-16T03:30:28;5.17;;;3.03;;
4268;SDS011;2148;48.554;7.834;2022-10-16T03:32:53;2.50;;;2.27;;
4268;SDS011;2148;48.554;7.834;2022-10-16T03:35:22;5.90;;;2.70;;
4268;SDS011;2148;48.554;7.834;2022-10-16T03:37:48;3.67;;;2.60;;
4268;SDS011;2148;48.554;7.834;2022-10-16T03:40:14;5.97;;;2.83;;
4268;SDS011;2148;48.554;7.834;2022-10-16T03:42:40;3.37;;;2.70;;
4268;SDS011;2148;48.554;7.834;2022-10-16T03:45:05;3.97;;;3.00;;
4268;SDS011;2148;48.554;7.834;2022-10-16T03:47:31;6.67;;;3.07;;
4268;SDS011;2148;48.554;7.834;2022-10-16T03:49:58;4.43;;;3.17;;
4268;SDS011;2148;48.554;7.834;2022-10-16T03:52:23;5.50;;;3.23;;
4268;SDS011;2148;48.554;7.834;2022-10-16T03:54:48;3.80;;;3.27;;
4268;SDS011;2148;48.554;7.834;2022-10-16T03:57:14;5.17;;;3.10;;
4268;SDS011;2148;48.554;7.834;2022-10-16T03:59:39;4.47;;;3.33;;
4268;SDS011;2148;48.554;7.834;2022-10-16T04:02:04;6.73;;;3.37;;
4268;SDS011;2148;48.554;7.834;2022-10-16T04:04:29;5.13;;;2.90;;
4268;SDS011;2148;48.554;7.834;2022-10-16T04:06:55;9.47;;;4.53;;
4268;SDS011;2148;48.554;7.834;2022-10-16T04:09:20;3.73;;;2.97;;
4268;SDS011;2148;48.554;7.834;2022-10-16T04:11:45;3.83;;;3.10;;
4268;SDS011;2148;48.554;7.834;2022-10-16T04:14:11;4.30;;;3.87;;
4268;SDS011;2148;48.554;7.834;2022-10-16T04:16:36;6.30;;;3.23;;
4268;SDS011;2148;48.554;7.834;2022-10-16T04:19:01;4.93;;;3.23;;
4268;SDS011;2148;48.554;7.834;2022-10-16T04:21:27;4.70;;;3.00;;
4268;SDS011;2148;48.554;7.834;2022-10-16T04:23:52;9.53;;;3.27;;
4268;SDS011;2148;48.554;7.834;2022-10-16T04:26:17;5.27;;;3.00;;
4268;SDS011;2148;48.554;7.834;2022-10-16T04:28:42;3.13;;;2.77;;
4268;SDS011;2148;48.554;7.834;2022-10-16T04:31:08;6.20;;;2.97;;
4268;SDS011;2148;48.554;7.834;2022-10-16T04:33:33;5.63;;;2.93;;
4268;SDS011;2148;48.554;7.834;2022-10-16T04:35:59;4.53;;;2.90;;
4268;SDS011;2148;48.554;7.834;2022-10-16T04:38:25;7.60;;;3.30;;
4268;SDS011;2148;48.554;7.834;2022-10-16T04:40:51;5.37;;;3.40;;
4268;SDS011;2148;48.554;7.834;2022-10-16T04:43:16;4.97;;;3.10;;
4268;SDS011;2148;48.554;7.834;2022-10-16T04:45:42;6.20;;;2.87;;
4268;SDS011;2148;48.554;7.834;2022-10-16T04:48:07;7.37;;;3.60;;
4268;SDS011;2148;48.554;7.834;2022-10-16T04:50:32;3.97;;;2.83;;
4268;SDS011;2148;48.554;7.834;2022-10-16T04:52:58;5.33;;;3.20;;
4268;SDS011;2148;48.554;7.834;2022-10-16T04:55:23;5.87;;;3.20;;
4268;SDS011;2148;48.554;7.834;2022-10-16T04:57:48;5.83;;;3.30;;
4268;SDS011;2148;48.554;7.834;2022-10-16T05:00:14;3.50;;;3.20;;
4268;SDS011;2148;48.554;7.834;2022-10-16T05:02:39;6.17;;;3.27;;
4268;SDS011;2148;48.554;7.834;2022-10-16T05:05:05;5.13;;;3.30;;
4268;SDS011;2148;48.554;7.834;2022-10-16T05:07:30;5.63;;;3.00;;
4268;SDS011;2148;48.554;7.834;2022-10-16T05:09:56;6.57;;;3.17;;
4268;SDS011;2148;48.554;7.834;2022-10-16T05:12:21;3.73;;;3.20;;
4268;SDS011;2148;48.554;7.834;2022-10-16T05:14:46;5.53;;;3.80;;
4268;SDS011;2148;48.554;7.834;2022-10-16T05:17:12;5.13;;;3.07;;
4268;SDS011;2148;48.554;7.834;2022-10-16T05:19:37;5.30;;;3.00;;
4268;SDS011;2148;48.554;7.834;2022-10-16T05:22:02;5.87;;;3.07;;
4268;SDS011;2148;48.554;7.834;2022-10-16T05:24:27;3.50;;;2.87;;
4268;SDS011;2148;48.554;7.834;2022-10-16T05:26:53;3.77;;;3.00;;
4268;SDS011;2148;48.554;7.834;2022-10-16T05:29:18;5.37;;;2.87;;
4268;SDS011;2148;48.554;7.834;2022-10-16T05:31:43;4.97;;;3.10;;
4268;SDS011;2148;48.554;7.834;2022-10-16T05:34:09;5.10;;;2.87;;
4268;SDS011;2148;48.554;7.834;2022-10-16T05:36:34;10.00;;;3.10;;
4268;SDS011;2148;48.554;7.834;2022-10-16T05:38:59;8.67;;;3.30;;
4268;SDS011;2148;48.554;7.834;2022-10-16T05:41:25;3.13;;;2.60;;
4268;SDS011;2148;48.554;7.834;2022-10-16T05:43:51;5.50;;;2.77;;
4268;SDS011;2148;48.554;7.834;2022-10-16T05:46:17;4.33;;;3.03;;
4268;SDS011;2148;48.554;7.834;2022-10-16T05:48:42;4.27;;;3.00;;
4268;SDS011;2148;48.554;7.834;2022-10-16T05:51:09;5.23;;;2.77;;
4268;SDS011;2148;48.554;7.834;2022-10-16T05:53:36;4.87;;;2.73;;
4268;SDS011;2148;48.554;7.834;2022-10-16T05:56:02;4.33;;;3.00;;
4268;SDS011;2148;48.554;7.834;2022-10-16T05:58:29;3.10;;;2.80;;
4268;SDS011;2148;48.554;7.834;2022-10-16T06:00:56;6.90;;;2.87;;
4268;SDS011;2148;48.554;7.834;2022-10-16T06:03:26;5.23;;;2.60;;
4268;SDS011;2148;48.554;7.834;2022-10-16T06:05:52;2.73;;;2.53;;
4268;SDS011;2148;48.554;7.834;2022-10-16T06:08:18;6.27;;;2.87;;
4268;SDS011;2148;48.554;7.834;2022-10-16T06:10:44;3.37;;;2.77;;
4268;SDS011;2148;48.554;7.834;2022-10-16T06:13:10;4.50;;;3.00;;
4268;SDS011;2148;48.554;7.834;2022-10-16T06:15:36;4.60;;;3.37;;
4268;SDS011;2148;48.554;7.834;2022-10-16T06:18:01;7.10;;;3.00;;
4268;SDS011;2148;48.554;7.834;2022-10-16T06:20:26;3.60;;;2.80;;
4268;SDS011;2148;48.554;7.834;2022-10-16T06:22:51;5.90;;;2.97;;
4268;SDS011;2148;48.554;7.834;2022-10-16T06:25:17;9.40;;;3.70;;
4268;SDS011;2148;48.554;7.834;2022-10-16T06:27:42;4.13;;;2.80;;
4268;SDS011;2148;48.554;7.834;2022-10-16T06:30:07;3.80;;;2.93;;
4268;SDS011;2148;48.554;7.834;2022-10-16T06:32:33;8.93;;;2.90;;
4268;SDS011;2148;48.554;7.834;2022-10-16T06:34:58;3.27;;;2.93;;
4268;SDS011;2148;48.554;7.834;2022-10-16T06:37:24;8.77;;;3.10;;
4268;SDS011;2148;48.554;7.834;2022-10-16T06:39:50;3.93;;;2.53;;
4268;SDS011;2148;48.554;7.834;2022-10-16T06:42:17;5.00;;;2.80;;
4268;SDS011;2148;48.554;7.834;2022-10-16T06:44:42;3.80;;;2.43;;
4268;SDS011;2148;48.554;7.834;2022-10-16T06:47:08;4.17;;;2.70;;
4268;SDS011;2148;48.554;7.834;2022-10-16T06:49:33;4.40;;;2.80;;
4268;SDS011;2148;48.554;7.834;2022-10-16T06:51:58;3.83;;;3.10;;
4268;SDS011;2148;48.554;7.834;2022-10-16T06:54:23;5.73;;;2.63;;
4268;SDS011;2148;48.554;7.834;2022-10-16T06:56:49;3.97;;;2.53;;
4268;SDS011;2148;48.554;7.834;2022-10-16T06:59:16;5.93;;;2.90;;
4268;SDS011;2148;48.554;7.834;2022-10-16T07:01:41;3.00;;;2.50;;
4268;SDS011;2148;48.554;7.834;2022-10-16T07:04:06;3.53;;;2.50;;
4268;SDS011;2148;48.554;7.834;2022-10-16T07:06:32;5.10;;;2.77;;
4268;SDS011;2148;48.554;7.834;2022-10-16T07:09:00;4.50;;;3.37;;
4268;SDS011;2148;48.554;7.834;2022-10-16T07:11:27;2.77;;;2.57;;
4268;SDS011;2148;48.554;7.834;2022-10-16T07:13:52;3.80;;;2.80;;
4268;SDS011;2148;48.554;7.834;2022-10-16T07:16:19;3.50;;;3.20;;
4268;SDS011;2148;48.554;7.834;2022-10-16T07:18:45;4.73;;;2.70;;
4268;SDS011;2148;48.554;7.834;2022-10-16T07:21:14;2.80;;;2.57;;
4268;SDS011;2148;48.554;7.834;2022-10-16T07:23:44;3.73;;;2.83;;
4268;SDS011;2148;48.554;7.834;2022-10-16T07:26:10;3.93;;;2.90;;
4268;SDS011;2148;48.554;7.834;2022-10-16T07:28:36;7.67;;;2.70;;
4268;SDS011;2148;48.554;7.834;2022-10-16T07:31:06;4.70;;;3.17;;
4268;SDS011;2148;48.554;7.834;2022-10-16T07:33:33;3.90;;;2.83;;
4268;SDS011;2148;48.554;7.834;2022-10-16T07:36:00;5.63;;;2.73;;
4268;SDS011;2148;48.554;7.834;2022-10-16T07:38:25;4.17;;;2.70;;
4268;SDS011;2148;48.554;7.834;2022-10-16T07:40:58;7.30;;;2.80;;
4268;SDS011;2148;48.554;7.834;2022-10-16T07:43:24;3.23;;;2.83;;
4268;SDS011;2148;48.554;7.834;2022-10-16T07:45:50;3.37;;;3.07;;
4268;SDS011;2148;48.554;7.834;2022-10-16T07:48:16;3.50;;;3.20;;
4268;SDS011;2148;48.554;7.834;2022-10-16T07:50:42;7.40;;;3.40;;
4268;SDS011;2148;48.554;7.834;2022-10-16T07:53:08;3.93;;;3.10;;
4268;SDS011;2148;48.554;7.834;2022-10-16T07:55:34;4.13;;;3.23;;
4268;SDS011;2148;48.554;7.834;2022-10-16T07:57:59;5.43;;;3.50;;
4268;SDS011;2148;48.554;7.834;2022-10-16T08:00:25;5.20;;;3.07;;
4268;SDS011;2148;48.554;7.834;2022-10-16T08:02:50;3.93;;;2.90;;
4268;SDS011;2148;48.554;7.834;2022-10-16T08:05:15;4.33;;;3.00;;
4268;SDS011;2148;48.554;7.834;2022-10-16T08:07:41;3.17;;;2.70;;
4268;SDS011;2148;48.554;7.834;2022-10-16T08:10:06;4.90;;;3.20;;
4268;SDS011;2148;48.554;7.834;2022-10-16T08:12:44;12.80;;;5.37;;
4268;SDS011;2148;48.554;7.834;2022-10-16T08:15:09;3.90;;;3.33;;
4268;SDS011;2148;48.554;7.834;2022-10-16T08:17:35;4.73;;;3.30;;
4268;SDS011;2148;48.554;7.834;2022-10-16T08:20:00;4.70;;;3.10;;
4268;SDS011;2148;48.554;7.834;2022-10-16T08:22:26;8.83;;;4.07;;
4268;SDS011;2148;48.554;7.834;2022-10-16T08:24:52;5.57;;;2.90;;
4268;SDS011;2148;48.554;7.834;2022-10-16T08:27:17;3.23;;;2.83;;
4268;SDS011;2148;48.554;7.834;2022-10-16T08:29:42;6.10;;;3.00;;
4268;SDS011;2148;48.554;7.834;2022-10-16T08:32:08;11.90;;;3.30;;
4268;SDS011;2148;48.554;7.834;2022-10-16T08:34:33;4.40;;;3.00;;
4268;SDS011;2148;48.554;7.834;2022-10-16T08:36:58;5.67;;;3.10;;
4268;SDS011;2148;48.554;7.834;2022-10-16T08:39:24;3.63;;;2.70;;
4268;SDS011;2148;48.554;7.834;2022-10-16T08:41:54;8.20;;;3.10;;
4268;SDS011;2148;48.554;7.834;2022-10-16T08:44:35;4.90;;;3.23;;
4268;SDS011;2148;48.554;7.834;2022-10-16T08:47:21;6.07;;;3.27;;
4268;SDS011;2148;48.554;7.834;2022-10-16T08:49:55;3.40;;;3.10;;
4268;SDS011;2148;48.554;7.834;2022-10-16T08:52:22;4.50;;;2.97;;
4268;SDS011;2148;48.554;7.834;2022-10-16T08:54:49;4.87;;;2.97;;
4268;SDS011;2148;48.554;7.834;2022-10-16T08:57:21;4.63;;;3.23;;
4268;SDS011;2148;48.554;7.834;2022-10-16T08:59:47;5.00;;;2.87;;
4268;SDS011;2148;48.554;7.834;2022-10-16T09:02:19;3.07;;;2.43;;
4268;SDS011;2148;48.554;7.834;2022-10-16T09:07:46;4.67;;;3.23;;
4268;SDS011;2148;48.554;7.834;2022-10-16T09:10:21;3.63;;;2.60;;
4268;SDS011;2148;48.554;7.834;2022-10-16T09:15:32;5.00;;;2.50;;
4268;SDS011;2148;48.554;7.834;2022-10-16T09:18:12;3.53;;;2.50;;
4268;SDS011;2148;48.554;7.834;2022-10-16T09:23:15;4.23;;;2.73;;
4268;SDS011;2148;48.554;7.834;2022-10-16T09:25:43;4.83;;;2.60;;
4268;SDS011;2148;48.554;7.834;2022-10-16T09:28:10;5.70;;;2.83;;
4268;SDS011;2148;48.554;7.834;2022-10-16T09:30:36;4.50;;;2.70;;
4268;SDS011;2148;48.554;7.834;2022-10-16T09:33:02;3.40;;;2.40;;
4268;SDS011;2148;48.554;7.834;2022-10-16T09:35:39;4.60;;;2.73;;
4268;SDS011;2148;48.554;7.834;2022-10-16T09:38:05;3.27;;;2.23;;
4268;SDS011;2148;48.554;7.834;2022-10-16T09:43:21;3.87;;;2.40;;
4268;SDS011;2148;48.554;7.834;2022-10-16T09:46:03;3.50;;;2.60;;
4268;SDS011;2148;48.554;7.834;2022-10-16T09:48:43;6.03;;;2.83;;
4268;SDS011;2148;48.554;7.834;2022-10-16T09:51:19;3.93;;;2.80;;
4268;SDS011;2148;48.554;7.834;2022-10-16T09:53:46;4.87;;;2.83;;
4268;SDS011;2148;48.554;7.834;2022-10-16T09:56:20;4.33;;;2.67;;
4268;SDS011;2148;48.554;7.834;2022-10-16T09:58:54;6.60;;;2.60;;
4268;SDS011;2148;48.554;7.834;2022-10-16T10:01:29;3.07;;;2.80;;
4268;SDS011;2148;48.554;7.834;2022-10-16T10:04:02;3.27;;;2.40;;
4268;SDS011;2148;48.554;7.834;2022-10-16T10:06:31;5.10;;;2.80;;
4268;SDS011;2148;48.554;7.834;2022-10-16T10:08:59;10.43;;;2.50;;
4268;SDS011;2148;48.554;7.834;2022-10-16T10:12:01;7.50;;;2.80;;
4268;SDS011;2148;48.554;7.834;2022-10-16T10:14:35;3.53;;;2.67;;
4268;SDS011;2148;48.554;7.834;2022-10-16T10:19:40;4.07;;;2.70;;
4268;SDS011;2148;48.554;7.834;2022-10-16T10:22:39;4.40;;;2.40;;
4268;SDS011;2148;48.554;7.834;2022-10-16T10:27:48;4.00;;;2.40;;
4268;SDS011;2148;48.554;7.834;2022-10-16T10:35:28;3.20;;;2.33;;
4268;SDS011;2148;48.554;7.834;2022-10-16T10:38:04;4.37;;;2.70;;
4268;SDS011;2148;48.554;7.834;2022-10-16T10:40:40;4.77;;;2.87;;
4268;SDS011;2148;48.554;7.834;2022-10-16T10:43:13;3.93;;;2.60;;
4268;SDS011;2148;48.554;7.834;2022-10-16T10:45:43;6.73;;;3.17;;
4268;SDS011;2148;48.554;7.834;2022-10-16T10:48:21;5.20;;;3.10;;
4268;SDS011;2148;48.554;7.834;2022-10-16T10:53:26;2.70;;;2.30;;
4268;SDS011;2148;48.554;7.834;2022-10-16T10:58:49;3.57;;;2.40;;
4268;SDS011;2148;48.554;7.834;2022-10-16T11:01:38;3.80;;;2.77;;
4268;SDS011;2148;48.554;7.834;2022-10-16T11:06:33;6.50;;;2.47;;
4268;SDS011;2148;48.554;7.834;2022-10-16T11:12:04;4.83;;;2.80;;
4268;SDS011;2148;48.554;7.834;2022-10-16T11:14:55;4.47;;;2.53;;
4268;SDS011;2148;48.554;7.834;2022-10-16T11:20:40;4.93;;;2.40;;
4268;SDS011;2148;48.554;7.834;2022-10-16T11:23:11;3.50;;;2.23;;
4268;SDS011;2148;48.554;7.834;2022-10-16T11:25:40;3.00;;;2.60;;
4268;SDS011;2148;48.554;7.834;2022-10-16T11:28:16;2.60;;;2.40;;
4268;SDS011;2148;48.554;7.834;2022-10-16T11:33:46;3.80;;;2.50;;
4268;SDS011;2148;48.554;7.834;2022-10-16T11:36:25;3.20;;;2.63;;
4268;SDS011;2148;48.554;7.834;2022-10-16T11:41:53;4.87;;;2.73;;
4268;SDS011;2148;48.554;7.834;2022-10-16T11:47:31;3.50;;;2.73;;
4268;SDS011;2148;48.554;7.834;2022-10-16T11:50:22;3.33;;;2.70;;
4268;SDS011;2148;48.554;7.834;2022-10-16T11:55:52;4.13;;;2.40;;
4268;SDS011;2148;48.554;7.834;2022-10-16T12:01:17;3.70;;;2.30;;
4268;SDS011;2148;48.554;7.834;2022-10-16T12:03:49;2.50;;;2.30;;
4268;SDS011;2148;48.554;7.834;2022-10-16T12:07:10;3.60;;;2.30;;
4268;SDS011;2148;48.554;7.834;2022-10-16T12:09:38;4.57;;;2.47;;
4268;SDS011;2148;48.554;7.834;2022-10-16T12:12:05;4.20;;;2.47;;
4268;SDS011;2148;48.554;7.834;2022-10-16T12:14:59;2.90;;;2.20;;
4268;SDS011;2148;48.554;7.834;2022-10-16T12:17:40;5.23;;;3.07;;
4268;SDS011;2148;48.554;7.834;2022-10-16T12:22:36;2.63;;;2.43;;
4268;SDS011;2148;48.554;7.834;2022-10-16T12:25:02;4.10;;;2.80;;
4268;SDS011;2148;48.554;7.834;2022-10-16T12:29:57;4.27;;;2.57;;
4268;SDS011;2148;48.554;7.834;2022-10-16T12:32:31;5.40;;;2.40;;
4268;SDS011;2148;48.554;7.834;2022-10-16T12:34:58;3.17;;;2.13;;
4268;SDS011;2148;48.554;7.834;2022-10-16T12:37:29;3.63;;;2.30;;
4268;SDS011;2148;48.554;7.834;2022-10-16T12:39:57;3.33;;;1.93;;
4268;SDS011;2148;48.554;7.834;2022-10-16T12:44:51;3.23;;;2.30;;
4268;SDS011;2148;48.554;7.834;2022-10-16T12:47:36;5.30;;;2.33;;
4268;SDS011;2148;48.554;7.834;2022-10-16T12:50:03;8.47;;;2.77;;
4268;SDS011;2148;48.554;7.834;2022-10-16T12:52:36;5.50;;;2.50;;
4268;SDS011;2148;48.554;7.834;2022-10-16T12:55:03;3.60;;;2.43;;
4268;SDS011;2148;48.554;7.834;2022-10-16T12:57:39;4.77;;;2.50;;
4268;SDS011;2148;48.554;7.834;2022-10-16T13:16:50;3.50;;;2.77;;
4268;SDS011;2148;48.554;7.834;2022-10-16T13:22:31;3.47;;;2.20;;
4268;SDS011;2148;48.554;7.834;2022-10-16T13:27:55;7.27;;;2.30;;
4268;SDS011;2148;48.554;7.834;2022-10-16T13:30:23;4.63;;;2.33;;
4268;SDS011;2148;48.554;7.834;2022-10-16T13:32:53;3.00;;;2.10;;
4268;SDS011;2148;48.554;7.834;2022-10-16T13:35:26;5.30;;;2.43;;
4268;SDS011;2148;48.554;7.834;2022-10-16T13:43:31;3.77;;;2.67;;
4268;SDS011;2148;48.554;7.834;2022-10-16T13:46:12;4.00;;;2.37;;
4268;SDS011;2148;48.554;7.834;2022-10-16T13:48:38;3.23;;;2.37;;
4268;SDS011;2148;48.554;7.834;2022-10-16T13:51:14;3.70;;;2.40;;
4268;SDS011;2148;48.554;7.834;2022-10-16T13:53:41;4.80;;;2.77;;
4268;SDS011;2148;48.554;7.834;2022-10-16T13:56:09;4.90;;;2.20;;
4268;SDS011;2148;48.554;7.834;2022-10-16T13:58:36;3.97;;;2.40;;
4268;SDS011;2148;48.554;7.834;2022-10-16T14:01:02;2.60;;;2.20;;
4268;SDS011;2148;48.554;7.834;2022-10-16T14:03:30;4.77;;;2.20;;
4268;SDS011;2148;48.554;7.834;2022-10-16T14:05:57;3.93;;;2.40;;
4268;SDS011;2148;48.554;7.834;2022-10-16T14:08:25;3.20;;;2.50;;
4268;SDS011;2148;48.554;7.834;2022-10-16T14:10:52;4.43;;;2.43;;
4268;SDS011;2148;48.554;7.834;2022-10-16T14:13:21;2.60;;;2.40;;
4268;SDS011;2148;48.554;7.834;2022-10-16T14:15:54;2.90;;;2.40;;
4268;SDS011;2148;48.554;7.834;2022-10-16T14:18:23;4.33;;;2.63;;
4268;SDS011;2148;48.554;7.834;2022-10-16T14:20:50;3.00;;;2.70;;
4268;SDS011;2148;48.554;7.834;2022-10-16T14:26:05;3.53;;;2.67;;
4268;SDS011;2148;48.554;7.834;2022-10-16T14:28:33;3.93;;;2.23;;
4268;SDS011;2148;48.554;7.834;2022-10-16T14:30:59;4.37;;;2.47;;
4268;SDS011;2148;48.554;7.834;2022-10-16T14:36:13;4.43;;;2.50;;
4268;SDS011;2148;48.554;7.834;2022-10-16T14:38:40;4.37;;;2.30;;
4268;SDS011;2148;48.554;7.834;2022-10-16T14:41:07;3.27;;;2.60;;
4268;SDS011;2148;48.554;7.834;2022-10-16T14:43:37;4.43;;;2.50;;
4268;SDS011;2148;48.554;7.834;2022-10-16T14:46:12;4.27;;;2.47;;
4268;SDS011;2148;48.554;7.834;2022-10-16T14:48:42;3.10;;;2.27;;
4268;SDS011;2148;48.554;7.834;2022-10-16T14:51:10;3.77;;;2.90;;
4268;SDS011;2148;48.554;7.834;2022-10-16T14:53:38;4.13;;;2.30;;
4268;SDS011;2148;48.554;7.834;2022-10-16T14:56:07;2.93;;;2.20;;
4268;SDS011;2148;48.554;7.834;2022-10-16T14:58:43;4.73;;;3.00;;
4268;SDS011;2148;48.554;7.834;2022-10-16T15:01:10;4.77;;;2.30;;
4268;SDS011;2148;48.554;7.834;2022-10-16T15:03:36;3.57;;;2.63;;
4268;SDS011;2148;48.554;7.834;2022-10-16T15:06:02;3.13;;;2.47;;
4268;SDS011;2148;48.554;7.834;2022-10-16T15:08:27;3.60;;;2.60;;
4268;SDS011;2148;48.554;7.834;2022-10-16T15:10:52;5.00;;;3.30;;
4268;SDS011;2148;48.554;7.834;2022-10-16T15:13:17;4.97;;;2.97;;
4268;SDS011;2148;48.554;7.834;2022-10-16T15:15:44;3.80;;;3.40;;
4268;SDS011;2148;48.554;7.834;2022-10-16T15:18:10;5.03;;;2.93;;
4268;SDS011;2148;48.554;7.834;2022-10-16T15:20:36;2.80;;;2.50;;
4268;SDS011;2148;48.554;7.834;2022-10-16T15:23:03;3.23;;;2.83;;
4268;SDS011;2148;48.554;7.834;2022-10-16T15:25:39;4.20;;;2.87;;
4268;SDS011;2148;48.554;7.834;2022-10-16T15:28:07;2.93;;;2.63;;
4268;SDS011;2148;48.554;7.834;2022-10-16T15:30:34;3.20;;;2.90;;
4268;SDS011;2148;48.554;7.834;2022-10-16T15:33:00;4.57;;;2.50;;
4268;SDS011;2148;48.554;7.834;2022-10-16T15:35:25;3.27;;;2.57;;
4268;SDS011;2148;48.554;7.834;2022-10-16T15:37:50;7.37;;;3.47;;
4268;SDS011;2148;48.554;7.834;2022-10-16T15:40:17;4.10;;;2.80;;
4268;SDS011;2148;48.554;7.834;2022-10-16T15:42:43;4.00;;;3.03;;
4268;SDS011;2148;48.554;7.834;2022-10-16T15:45:09;6.60;;;3.13;;
4268;SDS011;2148;48.554;7.834;2022-10-16T15:47:35;3.63;;;3.30;;
4268;SDS011;2148;48.554;7.834;2022-10-16T15:50:00;4.17;;;3.50;;
4268;SDS011;2148;48.554;7.834;2022-10-16T15:52:26;5.63;;;3.90;;
4268;SDS011;2148;48.554;7.834;2022-10-16T15:54:51;4.67;;;4.07;;
4268;SDS011;2148;48.554;7.834;2022-10-16T15:57:17;4.70;;;4.30;;
4268;SDS011;2148;48.554;7.834;2022-10-16T15:59:42;4.73;;;4.20;;
4268;SDS011;2148;48.554;7.834;2022-10-16T16:02:08;7.33;;;4.93;;
4268;SDS011;2148;48.554;7.834;2022-10-16T16:04:33;7.90;;;5.47;;
4268;SDS011;2148;48.554;7.834;2022-10-16T16:06:59;7.00;;;6.27;;
4268;SDS011;2148;48.554;7.834;2022-10-16T16:09:26;9.27;;;5.70;;
4268;SDS011;2148;48.554;7.834;2022-10-16T16:11:51;7.10;;;6.40;;
4268;SDS011;2148;48.554;7.834;2022-10-16T16:14:17;6.73;;;5.87;;
4268;SDS011;2148;48.554;7.834;2022-10-16T16:16:42;6.87;;;5.73;;
4268;SDS011;2148;48.554;7.834;2022-10-16T16:19:08;6.37;;;4.67;;
4268;SDS011;2148;48.554;7.834;2022-10-16T16:21:34;4.50;;;4.10;;
4268;SDS011;2148;48.554;7.834;2022-10-16T16:23:59;5.97;;;5.37;;
4268;SDS011;2148;48.554;7.834;2022-10-16T16:26:26;5.63;;;4.10;;
4268;SDS011;2148;48.554;7.834;2022-10-16T16:28:53;4.90;;;4.50;;
4268;SDS011;2148;48.554;7.834;2022-10-16T16:31:19;7.43;;;4.90;;
4268;SDS011;2148;48.554;7.834;2022-10-16T16:33:45;5.93;;;5.43;;
4268;SDS011;2148;48.554;7.834;2022-10-16T16:36:11;7.13;;;6.40;;
4268;SDS011;2148;48.554;7.834;2022-10-16T16:38:36;11.70;;;10.47;;
4268;SDS011;2148;48.554;7.834;2022-10-16T16:41:14;10.57;;;9.43;;
4268;SDS011;2148;48.554;7.834;2022-10-16T16:43:41;19.30;;;17.27;;
4268;SDS011;2148;48.554;7.834;2022-10-16T16:46:07;23.43;;;20.37;;
4268;SDS011;2148;48.554;7.834;2022-10-16T16:48:32;28.97;;;24.27;;
4268;SDS011;2148;48.554;7.834;2022-10-16T16:51:08;25.77;;;20.53;;
4268;SDS011;2148;48.554;7.834;2022-10-16T16:53:36;29.63;;;26.63;;
4268;SDS011;2148;48.554;7.834;2022-10-16T16:56:05;23.67;;;19.90;;
4268;SDS011;2148;48.554;7.834;2022-10-16T16:58:31;20.40;;;17.50;;
4268;SDS011;2148;48.554;7.834;2022-10-16T17:00:56;18.30;;;15.07;;
4268;SDS011;2148;48.554;7.834;2022-10-16T17:03:25;17.73;;;13.53;;
4268;SDS011;2148;48.554;7.834;2022-10-16T17:06:12;13.87;;;11.80;;
4268;SDS011;2148;48.554;7.834;2022-10-16T17:08:39;18.07;;;11.80;;
4268;SDS011;2148;48.554;7.834;2022-10-16T17:11:05;16.03;;;11.37;;
4268;SDS011;2148;48.554;7.834;2022-10-16T17:13:32;14.77;;;9.20;;
4268;SDS011;2148;48.554;7.834;2022-10-16T17:16:02;12.00;;;7.90;;
4268;SDS011;2148;48.554;7.834;2022-10-16T17:18:28;8.37;;;7.30;;